createdAt,value
2022-12-31T00:01:27.508Z,98988.84
2022-12-31T00:03:55.722Z,98994.19
2022-12-31T00:06:29.610Z,98985.47
2022-12-31T00:08:58.243Z,98986.22
2022-12-31T00:11:27.392Z,98980.13
2022-12-31T00:13:55.021Z,98973.78
2022-12-31T00:16:27.939Z,98982.75
2022-12-31T00:18:59.483Z,98984.81
2022-12-31T00:21:28.500Z,98978.69
2022-12-31T00:23:56.222Z,98967.00
2022-12-31T00:26:27.390Z,98969.19
2022-12-31T00:28:56.339Z,98962.41
2022-12-31T00:31:27.275Z,98962.88
2022-12-31T00:33:54.381Z,98967.22
2022-12-31T00:36:30.009Z,98965.63
2022-12-31T00:38:58.973Z,98964.81
2022-12-31T00:41:27.833Z,98962.16
2022-12-31T00:43:55.339Z,98962.69
2022-12-31T00:46:22.754Z,98968.56
2022-12-31T00:48:50.266Z,98968.75
2022-12-31T00:51:20.706Z,98964.53
2022-12-31T00:53:47.885Z,98974.41
2022-12-31T00:56:17.913Z,98976.31
2022-12-31T00:58:45.683Z,98968.19
2022-12-31T01:01:19.035Z,98977.13
2022-12-31T01:03:48.119Z,98967.84
2022-12-31T01:06:15.762Z,98965.47
2022-12-31T01:08:42.793Z,98959.19
2022-12-31T01:11:19.836Z,98958.53
2022-12-31T01:13:57.625Z,98951.31
2022-12-31T01:16:31.184Z,98950.66
2022-12-31T01:19:00.463Z,98959.19
2022-12-31T01:21:28.530Z,98948.53
2022-12-31T01:23:56.135Z,98942.25
2022-12-31T01:26:23.217Z,98940.06
2022-12-31T01:28:50.326Z,98937.84
2022-12-31T01:31:19.801Z,98932.22
2022-12-31T01:33:47.873Z,98940.50
2022-12-31T01:36:25.361Z,98939.31
2022-12-31T01:38:54.203Z,98937.84
2022-12-31T01:41:24.003Z,98934.88
2022-12-31T01:43:59.862Z,98928.66
2022-12-31T01:46:51.939Z,98933.06
2022-12-31T01:49:18.940Z,98926.50
2022-12-31T01:51:49.767Z,98924.34
2022-12-31T01:54:20.802Z,98926.38
2022-12-31T01:56:50.277Z,98925.44
2022-12-31T01:59:18.915Z,98924.03
2022-12-31T02:01:48.580Z,98912.84
2022-12-31T02:04:16.646Z,98900.22
2022-12-31T02:06:50.697Z,98909.72
2022-12-31T02:09:17.950Z,98910.16
2022-12-31T02:11:44.978Z,98906.97
2022-12-31T02:14:17.039Z,98914.00
2022-12-31T02:16:57.001Z,98917.13
2022-12-31T02:19:48.984Z,98914.47
2022-12-31T02:22:39.032Z,98908.22
2022-12-31T02:25:18.356Z,98911.56
2022-12-31T02:28:16.155Z,98910.16
2022-12-31T02:30:48.390Z,98917.88
2022-12-31T02:33:45.129Z,98915.69
2022-12-31T02:36:30.944Z,98914.22
2022-12-31T02:38:58.864Z,98908.34
2022-12-31T02:41:44.292Z,98906.88
2022-12-31T02:44:30.916Z,98906.88
2022-12-31T02:47:07.053Z,98899.13
2022-12-31T02:49:40.136Z,98902.34
2022-12-31T02:52:30.071Z,98896.31
2022-12-31T02:55:05.884Z,98898.06
2022-12-31T02:57:42.893Z,98898.81
2022-12-31T03:00:31.759Z,98890.88
2022-12-31T03:03:01.234Z,98891.63
2022-12-31T03:05:31.312Z,98881.84
2022-12-31T03:07:58.438Z,98869.72
2022-12-31T03:10:25.570Z,98870.19
2022-12-31T03:12:52.691Z,98868.25
2022-12-31T03:15:24.139Z,98881.38
2022-12-31T03:17:53.975Z,98872.63
2022-12-31T03:20:41.513Z,98863.44
2022-12-31T03:23:11.118Z,98866.63
2022-12-31T03:25:40.779Z,98875.84
2022-12-31T03:28:19.557Z,98879.97
2022-12-31T03:30:49.425Z,98889.19
2022-12-31T03:33:16.869Z,98883.13
2022-12-31T03:35:47.397Z,98890.13
2022-12-31T03:38:15.678Z,98881.84
2022-12-31T03:40:45.880Z,98883.31
2022-12-31T03:43:13.149Z,98892.06
2022-12-31T03:45:40.364Z,98897.41
2022-12-31T03:48:09.942Z,98896.22
2022-12-31T03:50:37.251Z,98894.97
2022-12-31T03:53:04.579Z,98898.78
2022-12-31T03:55:32.246Z,98899.47
2022-12-31T03:57:59.408Z,98895.78
2022-12-31T04:00:26.499Z,98900.59
2022-12-31T04:02:53.700Z,98908.06
2022-12-31T04:05:21.529Z,98909.31
2022-12-31T04:07:48.856Z,98916.56
2022-12-31T04:10:17.685Z,98910.72
2022-12-31T04:12:46.413Z,98912.50
2022-12-31T04:15:19.785Z,98907.16
2022-12-31T04:17:47.528Z,98911.69
2022-12-31T04:20:15.276Z,98912.13
2022-12-31T04:22:42.539Z,98913.16
2022-12-31T04:25:13.219Z,98918.31
2022-12-31T04:27:43.956Z,98922.22
2022-12-31T04:30:13.049Z,98916.22
2022-12-31T04:32:40.117Z,98928.34
2022-12-31T04:35:08.166Z,98927.44
2022-12-31T04:37:35.218Z,98933.28
2022-12-31T04:40:08.639Z,98932.34
2022-12-31T04:42:36.487Z,98932.34
2022-12-31T04:45:04.348Z,98932.88
2022-12-31T04:47:31.466Z,98932.88
2022-12-31T04:49:58.533Z,98928.47
2022-12-31T04:52:25.605Z,98935.78
2022-12-31T04:54:52.633Z,98941.13
2022-12-31T04:57:19.755Z,98933.41
2022-12-31T04:59:47.010Z,98932.66
2022-12-31T05:02:14.091Z,98929.94
2022-12-31T05:04:41.217Z,98932.34
2022-12-31T05:07:08.288Z,98919.25
2022-12-31T05:09:35.373Z,98913.69
2022-12-31T05:12:02.479Z,98913.50
2022-12-31T05:14:29.573Z,98917.38
2022-12-31T05:16:57.275Z,98909.81
2022-12-31T05:19:24.431Z,98908.16
2022-12-31T05:22:09.977Z,98903.28
2022-12-31T05:24:37.136Z,98905.22
2022-12-31T05:27:04.233Z,98896.00
2022-12-31T05:29:31.336Z,98901.16
2022-12-31T05:31:58.435Z,98899.47
2022-12-31T05:34:25.581Z,98905.75
2022-12-31T05:36:53.120Z,98906.91
2022-12-31T05:39:20.483Z,98914.19
2022-12-31T05:41:47.587Z,98913.91
2022-12-31T05:44:14.788Z,98912.84
2022-12-31T05:46:41.944Z,98905.06
2022-12-31T05:49:08.990Z,98911.06
2022-12-31T05:51:36.075Z,98916.63
2022-12-31T05:54:03.162Z,98905.94
2022-12-31T05:56:30.482Z,98901.28
2022-12-31T05:58:57.524Z,98904.88
2022-12-31T06:01:24.678Z,98903.59
2022-12-31T06:03:51.875Z,98915.97
2022-12-31T06:06:18.922Z,98926.84
2022-12-31T06:08:50.228Z,98914.50
2022-12-31T06:11:17.516Z,98913.09
2022-12-31T06:13:44.640Z,98912.63
2022-12-31T06:16:12.009Z,98920.63
2022-12-31T06:18:39.059Z,98911.88
2022-12-31T06:21:07.126Z,98919.63
2022-12-31T06:23:34.245Z,98916.03
2022-12-31T06:26:05.367Z,98914.81
2022-12-31T06:28:32.428Z,98918.50
2022-12-31T06:31:04.863Z,98914.41
2022-12-31T06:33:32.352Z,98915.88
2022-12-31T06:36:01.669Z,98923.41
2022-12-31T06:38:30.831Z,98920.31
2022-12-31T06:40:57.948Z,98923.41
2022-12-31T06:43:25.664Z,98927.31
2022-12-31T06:45:52.667Z,98931.19
2022-12-31T06:48:19.664Z,98925.31
2022-12-31T06:50:46.930Z,98936.66
2022-12-31T06:53:14.133Z,98939.97
2022-12-31T06:55:42.124Z,98945.31
2022-12-31T06:58:13.686Z,98951.59
2022-12-31T07:00:54.396Z,98953.28
2022-12-31T07:03:36.611Z,98954.66
2022-12-31T07:06:40.970Z,98959.44
2022-12-31T07:09:31.723Z,98968.41
2022-12-31T07:12:09.820Z,98969.59
2022-12-31T07:14:46.598Z,98965.94
2022-12-31T07:17:34.649Z,98972.00
2022-12-31T07:20:12.298Z,98970.34
2022-12-31T07:22:39.902Z,98975.16
2022-12-31T07:25:08.143Z,98976.81
2022-12-31T07:27:53.957Z,98978.75
2022-12-31T07:30:25.024Z,98980.66
2022-12-31T07:33:03.826Z,98988.97
2022-12-31T07:35:35.724Z,98988.22
2022-12-31T07:38:25.224Z,98991.16
2022-12-31T07:41:13.783Z,98991.88
2022-12-31T07:44:02.058Z,98992.63
2022-12-31T07:46:41.442Z,98989.66
2022-12-31T07:49:12.814Z,98999.63
2022-12-31T07:51:41.059Z,98998.88
2022-12-31T07:54:13.647Z,99002.28
2022-12-31T07:56:42.408Z,98998.69
2022-12-31T07:59:33.966Z,98994.81
2022-12-31T08:02:38.694Z,98994.81
2022-12-31T08:05:50.431Z,98986.63
2022-12-31T08:08:35.558Z,98992.72
2022-12-31T08:11:31.294Z,98988.56
2022-12-31T08:14:01.885Z,98987.50
2022-12-31T08:16:30.399Z,98995.94
2022-12-31T08:18:58.096Z,98987.50
2022-12-31T08:21:46.307Z,98979.50
2022-12-31T08:24:21.782Z,98988.41
2022-12-31T08:27:08.357Z,98988.22
2022-12-31T08:29:35.627Z,98994.53
2022-12-31T08:32:17.796Z,98990.03
2022-12-31T08:34:44.870Z,98981.81
2022-12-31T08:37:21.934Z,98985.25
2022-12-31T08:40:13.256Z,98976.94
2022-12-31T08:42:46.238Z,98981.53
2022-12-31T08:45:23.150Z,98970.13
2022-12-31T08:47:59.807Z,98968.94
2022-12-31T08:50:28.158Z,98963.88
2022-12-31T08:52:55.787Z,98968.28
2022-12-31T08:55:23.244Z,98970.22
2022-12-31T08:58:08.784Z,98972.44
2022-12-31T09:00:37.798Z,98978.00
2022-12-31T09:03:39.727Z,98971.75
2022-12-31T09:06:11.164Z,98973.75
2022-12-31T09:09:12.110Z,98973.38
2022-12-31T09:11:54.225Z,98973.91
2022-12-31T09:14:37.938Z,98978.09
2022-12-31T09:17:11.514Z,98979.59
2022-12-31T09:19:38.594Z,98977.50
2022-12-31T09:22:05.803Z,98991.63
2022-12-31T09:24:33.088Z,98991.16
2022-12-31T09:27:22.475Z,98996.56
2022-12-31T09:30:08.001Z,98999.31
2022-12-31T09:33:00.387Z,99011.53
2022-12-31T09:35:48.809Z,99007.44
2022-12-31T09:38:31.323Z,99010.41
2022-12-31T09:41:25.829Z,99009.00
2022-12-31T09:44:27.517Z,99012.94
2022-12-31T09:47:24.881Z,99021.22
2022-12-31T09:50:05.010Z,99021.22
2022-12-31T09:52:44.244Z,99033.91
2022-12-31T09:55:24.406Z,99032.03
2022-12-31T09:58:21.208Z,99027.19
2022-12-31T10:00:58.332Z,99032.75
2022-12-31T10:03:50.411Z,99035.63
2022-12-31T10:06:48.756Z,99046.81
2022-12-31T10:09:35.560Z,99047.53
2022-12-31T10:12:24.387Z,99041.25
2022-12-31T10:15:16.206Z,99045.13
2022-12-31T10:17:57.977Z,99039.56
2022-12-31T10:20:45.066Z,99048.09
2022-12-31T10:23:27.555Z,99055.94
2022-12-31T10:26:06.207Z,99055.69
2022-12-31T10:28:41.278Z,99058.44
2022-12-31T10:31:22.551Z,99051.63
2022-12-31T10:34:07.413Z,99053.56
2022-12-31T10:37:04.159Z,99043.34
2022-12-31T10:39:50.861Z,99049.94
2022-12-31T10:43:07.334Z,99046.81
2022-12-31T10:46:03.341Z,99052.41
2022-12-31T10:48:42.974Z,99043.97
2022-12-31T10:51:46.770Z,99045.22
2022-12-31T10:54:38.527Z,99048.66
2022-12-31T10:57:17.668Z,99054.06
2022-12-31T11:00:21.198Z,99032.91
2022-12-31T11:03:32.794Z,99032.63
2022-12-31T11:06:30.554Z,99036.50
2022-12-31T11:09:34.857Z,99026.50
2022-12-31T11:12:22.578Z,99025.25
2022-12-31T11:14:55.410Z,99022.81
2022-12-31T11:17:34.538Z,99020.66
2022-12-31T11:20:19.785Z,99016.78
2022-12-31T11:23:05.000Z,99026.06
2022-12-31T11:25:53.654Z,99020.97
2022-12-31T11:28:20.670Z,99018.31
2022-12-31T11:30:47.989Z,99018.88
2022-12-31T11:33:48.448Z,99010.34
2022-12-31T11:36:37.576Z,99013.22
2022-12-31T11:39:34.407Z,99014.19
2022-12-31T11:42:35.465Z,99006.22
2022-12-31T11:45:11.671Z,98999.69
2022-12-31T11:48:28.741Z,99006.56
2022-12-31T11:51:05.926Z,98998.53
2022-12-31T11:53:41.751Z,98991.94
2022-12-31T11:56:20.687Z,98987.81
2022-12-31T11:58:55.957Z,98989.53
2022-12-31T12:01:25.723Z,98990.97
2022-12-31T12:03:53.141Z,98993.66
2022-12-31T12:06:27.831Z,98984.19
2022-12-31T12:09:01.856Z,98991.03
2022-12-31T12:11:32.734Z,98986.59
2022-12-31T12:13:59.887Z,98978.56
2022-12-31T12:16:28.427Z,98984.44
2022-12-31T12:19:05.667Z,98979.06
2022-12-31T12:21:33.347Z,98978.56
2022-12-31T12:24:31.355Z,98978.06
2022-12-31T12:26:58.539Z,98974.38
2022-12-31T12:29:35.698Z,98974.84
2022-12-31T12:32:28.809Z,98979.78
2022-12-31T12:34:55.993Z,98973.72
2022-12-31T12:37:27.443Z,98963.78
2022-12-31T12:40:01.730Z,98965.00
2022-12-31T12:42:30.172Z,98959.88
2022-12-31T12:45:18.837Z,98960.88
2022-12-31T12:47:48.453Z,98971.34
2022-12-31T12:50:22.167Z,98960.91
2022-12-31T12:52:59.673Z,98962.38
2022-12-31T12:55:37.393Z,98955.31
2022-12-31T12:58:22.658Z,98943.63
2022-12-31T13:01:11.179Z,98942.44
2022-12-31T13:04:07.731Z,98944.38
2022-12-31T13:07:13.023Z,98948.03
2022-12-31T13:09:55.108Z,98940.75
2022-12-31T13:13:22.820Z,98932.94
2022-12-31T13:15:46.584Z,98935.13
2022-12-31T13:18:24.350Z,98934.66
2022-12-31T13:20:59.275Z,98937.34
2022-12-31T13:23:36.287Z,98926.13
2022-12-31T13:26:31.993Z,98932.94
2022-12-31T13:29:02.248Z,98922.00
2022-12-31T13:31:36.849Z,98925.41
2022-12-31T13:34:16.892Z,98914.94
2022-12-31T13:36:47.828Z,98909.59
2022-12-31T13:39:37.861Z,98906.69
2022-12-31T13:42:17.253Z,98899.16
2022-12-31T13:45:02.662Z,98904.72
2022-12-31T13:48:08.967Z,98891.34
2022-12-31T13:51:08.183Z,98888.19
2022-12-31T13:53:49.251Z,98884.06
2022-12-31T13:56:24.394Z,98889.16
2022-12-31T13:59:01.908Z,98883.06
2022-12-31T14:01:37.399Z,98882.09
2022-12-31T14:04:33.431Z,98868.94
2022-12-31T14:07:10.956Z,98878.97
2022-12-31T14:09:38.341Z,98874.31
2022-12-31T14:12:22.796Z,98865.56
2022-12-31T14:15:29.971Z,98852.44
2022-12-31T14:18:05.986Z,98850.47
2022-12-31T14:20:43.031Z,98845.59
2022-12-31T14:23:28.112Z,98844.88
2022-12-31T14:26:01.017Z,98838.56
2022-12-31T14:28:40.427Z,98833.69
2022-12-31T14:31:29.933Z,98832.19
2022-12-31T14:34:08.716Z,98835.09
2022-12-31T14:37:08.237Z,98833.19
2022-12-31T14:40:03.184Z,98827.06
2022-12-31T14:43:07.793Z,98824.91
2022-12-31T14:45:34.659Z,98823.19
2022-12-31T14:48:33.872Z,98824.13
2022-12-31T14:51:03.548Z,98820.50
2022-12-31T14:53:31.558Z,98818.06
2022-12-31T14:56:04.167Z,98818.06
2022-12-31T14:58:42.898Z,98816.84
2022-12-31T15:01:16.260Z,98816.13
2022-12-31T15:03:46.331Z,98811.72
2022-12-31T15:06:48.253Z,98812.44
2022-12-31T15:09:36.103Z,98818.53
2022-12-31T15:12:26.890Z,98821.19
2022-12-31T15:15:22.397Z,98818.28
2022-12-31T15:18:03.156Z,98810.69
2022-12-31T15:20:51.172Z,98809.72
2022-12-31T15:23:30.923Z,98810.19
2022-12-31T15:26:00.602Z,98809.69
2022-12-31T15:28:30.207Z,98807.00
2022-12-31T15:31:07.422Z,98814.31
2022-12-31T15:33:39.173Z,98808.72
2022-12-31T15:36:16.246Z,98811.38
2022-12-31T15:38:43.569Z,98805.81
2022-12-31T15:41:19.990Z,98806.03
2022-12-31T15:43:54.985Z,98811.16
2022-12-31T15:46:36.877Z,98805.81
2022-12-31T15:49:15.307Z,98806.31
2022-12-31T15:51:52.133Z,98810.91
2022-12-31T15:54:28.143Z,98796.81
2022-12-31T15:56:55.227Z,98809.50
2022-12-31T15:59:23.750Z,98803.34
2022-12-31T16:01:51.346Z,98812.59
2022-12-31T16:04:25.719Z,98804.28
2022-12-31T16:06:53.402Z,98800.16
2022-12-31T16:09:24.954Z,98800.88
2022-12-31T16:11:53.849Z,98800.63
2022-12-31T16:14:25.348Z,98804.50
2022-12-31T16:16:58.446Z,98796.72
2022-12-31T16:19:30.322Z,98793.50
2022-12-31T16:22:01.024Z,98793.25
2022-12-31T16:24:35.222Z,98796.25
2022-12-31T16:27:10.069Z,98795.78
2022-12-31T16:29:41.888Z,98801.47
2022-12-31T16:32:14.745Z,98799.53
2022-12-31T16:34:41.865Z,98796.38
2022-12-31T16:37:20.096Z,98803.88
2022-12-31T16:40:18.344Z,98805.13
2022-12-31T16:42:47.917Z,98800.03
2022-12-31T16:45:30.068Z,98801.00
2022-12-31T16:48:14.553Z,98801.97
2022-12-31T16:50:53.883Z,98794.16
2022-12-31T16:53:26.391Z,98796.81
2022-12-31T16:56:01.244Z,98795.13
2022-12-31T16:58:32.309Z,98800.97
2022-12-31T17:01:22.494Z,98798.53
2022-12-31T17:03:54.301Z,98800.03
2022-12-31T17:06:22.279Z,98800.03
2022-12-31T17:09:01.171Z,98811.22
2022-12-31T17:11:34.069Z,98806.59
2022-12-31T17:14:14.219Z,98800.03
2022-12-31T17:17:02.642Z,98799.06
2022-12-31T17:19:33.458Z,98807.56
2022-12-31T17:22:01.329Z,98802.94
2022-12-31T17:24:28.621Z,98796.66
2022-12-31T17:27:02.592Z,98800.06
2022-12-31T17:29:29.908Z,98797.38
2022-12-31T17:32:01.409Z,98802.72
2022-12-31T17:34:47.486Z,98805.41
2022-12-31T17:37:34.947Z,98809.53
2022-12-31T17:40:49.954Z,98807.13
2022-12-31T17:42:49.589Z,98806.63
2022-12-31T17:45:21.564Z,98807.34
2022-12-31T17:47:55.856Z,98806.38
2022-12-31T17:50:27.617Z,98809.75
2022-12-31T17:53:12.393Z,98809.97
2022-12-31T17:55:42.125Z,98810.47
2022-12-31T17:58:18.190Z,98807.03
2022-12-31T18:00:45.386Z,98812.13
2022-12-31T18:03:12.459Z,98808.94
2022-12-31T18:05:39.456Z,98815.03
2022-12-31T18:08:07.448Z,98816.94
2022-12-31T18:10:38.424Z,98809.63
2022-12-31T18:13:08.209Z,98813.25
2022-12-31T18:15:35.288Z,98815.88
2022-12-31T18:18:02.904Z,98813.22
2022-12-31T18:20:30.155Z,98817.31
2022-12-31T18:22:57.281Z,98816.81
2022-12-31T18:25:24.640Z,98817.50
2022-12-31T18:27:52.673Z,98817.72
2022-12-31T18:30:19.788Z,98819.69
2022-12-31T18:32:47.290Z,98820.63
2022-12-31T18:35:40.694Z,98825.97
2022-12-31T18:38:06.467Z,98821.31
2022-12-31T18:40:34.328Z,98828.59
2022-12-31T18:43:05.170Z,98835.19
2022-12-31T18:45:32.509Z,98834.19
2022-12-31T18:47:59.658Z,98841.97
2022-12-31T18:50:26.667Z,98835.88
2022-12-31T18:52:53.669Z,98844.38
2022-12-31T18:55:42.234Z,98842.91
2022-12-31T18:58:10.704Z,98850.66
2022-12-31T19:00:38.612Z,98850.16
2022-12-31T19:03:05.905Z,98850.38
2022-12-31T19:05:37.746Z,98853.28
2022-12-31T19:08:05.361Z,98853.94
2022-12-31T19:10:32.680Z,98854.16
2022-12-31T19:12:59.682Z,98857.06
2022-12-31T19:15:36.291Z,98859.00
2022-12-31T19:18:03.722Z,98865.09
2022-12-31T19:20:31.276Z,98865.81
2022-12-31T19:22:58.894Z,98871.88
2022-12-31T19:25:34.009Z,98868.03
2022-12-31T19:28:02.209Z,98865.59
2022-12-31T19:30:32.175Z,98866.09
2022-12-31T19:32:59.817Z,98875.34
2022-12-31T19:35:28.240Z,98878.50
2022-12-31T19:37:56.021Z,98881.88
2022-12-31T19:40:28.765Z,98888.97
2022-12-31T19:42:56.931Z,98885.34
2022-12-31T19:45:26.936Z,98893.38
2022-12-31T19:47:55.837Z,98899.91
2022-12-31T19:50:25.568Z,98907.66
2022-12-31T19:52:56.465Z,98911.53
2022-12-31T19:55:28.122Z,98916.59
2022-12-31T19:57:55.150Z,98919.78
2022-12-31T20:00:22.573Z,98932.16
2022-12-31T20:02:50.272Z,98938.41
2022-12-31T20:05:19.745Z,98943.75
2022-12-31T20:07:47.151Z,98952.97
2022-12-31T20:10:14.881Z,98948.09
2022-12-31T20:12:44.634Z,98946.59
2022-12-31T20:15:12.071Z,98965.03
2022-12-31T20:17:39.299Z,98963.56
2022-12-31T20:20:07.151Z,98967.47
2022-12-31T20:22:34.592Z,98967.97
2022-12-31T20:25:01.672Z,98974.78
2022-12-31T20:27:28.838Z,98966.28
2022-12-31T20:29:55.987Z,98974.38
2022-12-31T20:32:23.149Z,98972.44
2022-12-31T20:34:50.204Z,98976.78
2022-12-31T20:37:17.329Z,98973.88
2022-12-31T20:39:44.502Z,98978.19
2022-12-31T20:42:11.667Z,98977.47
2022-12-31T20:44:38.741Z,98978.66
2022-12-31T20:47:05.837Z,98984.00
2022-12-31T20:50:09.253Z,98982.06
2022-12-31T20:52:19.962Z,98977.94
2022-12-31T20:54:47.091Z,98989.81
2022-12-31T20:57:14.134Z,98983.00
2022-12-31T20:59:41.162Z,98995.63
2022-12-31T21:02:22.829Z,98993.91
2022-12-31T21:04:53.600Z,98987.06
2022-12-31T21:07:20.926Z,98993.38
2022-12-31T21:09:47.943Z,98996.03
2022-12-31T21:12:34.093Z,98998.47
2022-12-31T21:15:02.685Z,98999.91
2022-12-31T21:17:29.716Z,98997.22
2022-12-31T21:19:57.032Z,98999.91
2022-12-31T21:22:24.467Z,98998.72
2022-12-31T21:24:52.010Z,99001.84
2022-12-31T21:27:19.152Z,99001.59
2022-12-31T21:30:16.935Z,99005.22
2022-12-31T21:32:33.752Z,99008.59
2022-12-31T21:35:40.044Z,99001.81
2022-12-31T21:37:58.293Z,99007.88
2022-12-31T21:40:28.439Z,99012.75
2022-12-31T21:42:55.488Z,99019.84
2022-12-31T21:45:22.575Z,99009.16
2022-12-31T21:48:08.205Z,99011.28
2022-12-31T21:50:35.570Z,99017.81
2022-12-31T21:53:02.685Z,99015.16
2022-12-31T21:55:48.875Z,99015.59
2022-12-31T21:58:26.525Z,99010.47
2022-12-31T22:01:13.591Z,99016.00
2022-12-31T22:03:41.108Z,99023.31
2022-12-31T22:06:13.928Z,99020.63
2022-12-31T22:08:45.580Z,99025.97
2022-12-31T22:11:13.603Z,99019.38
2022-12-31T22:13:41.089Z,99023.97
2022-12-31T22:16:08.680Z,99015.69
2022-12-31T22:18:39.172Z,99027.84
2022-12-31T22:21:18.384Z,99032.91
2022-12-31T22:23:49.114Z,99029.97
2022-12-31T22:26:17.833Z,99034.38
2022-12-31T22:28:45.930Z,99026.63
2022-12-31T22:31:16.165Z,99028.09
2022-12-31T22:33:44.120Z,99025.72
2022-12-31T22:36:14.164Z,99025.41
2022-12-31T22:38:41.341Z,99030.03
2022-12-31T22:41:14.204Z,99022.50
2022-12-31T22:43:44.970Z,99028.75
2022-12-31T22:46:17.800Z,99031.16
2022-12-31T22:48:45.227Z,99027.50
2022-12-31T22:51:13.702Z,99028.22
2022-12-31T22:53:41.724Z,99026.03
2022-12-31T22:56:10.095Z,99023.81
2022-12-31T22:58:37.463Z,99022.63
2022-12-31T23:01:09.032Z,99025.28
2022-12-31T23:03:36.266Z,99023.81
2022-12-31T23:06:03.448Z,99024.53
2022-12-31T23:08:30.477Z,99026.50
2022-12-31T23:11:05.910Z,99021.16
2022-12-31T23:14:00.229Z,99027.69
2022-12-31T23:16:48.425Z,99033.75
2022-12-31T23:19:35.124Z,99027.69
2022-12-31T23:22:21.272Z,99030.63
2022-12-31T23:24:48.280Z,99026.22
2022-12-31T23:27:15.413Z,99034.22
2022-12-31T23:29:47.100Z,99019.63
2022-12-31T23:32:16.863Z,99025.41
2022-12-31T23:34:45.848Z,99023.66
2022-12-31T23:37:14.546Z,99031.41
2022-12-31T23:39:42.001Z,99013.91
2022-12-31T23:42:09.120Z,99025.81
2022-12-31T23:44:36.172Z,99014.59
2022-12-31T23:47:03.348Z,99014.06
2022-12-31T23:49:30.615Z,99013.78
2022-12-31T23:51:57.644Z,99002.13
2022-12-31T23:54:24.715Z,99005.69
2022-12-31T23:56:52.150Z,99005.44
2022-12-31T23:59:19.218Z,99004.69
